sensor_id;sensor_type;location;lat;lon;timestamp;P1;durP1;ratioP1;P2;durP2;ratioP2
5303;SDS011;2674;49.722;10.892;2023-01-23T00:01:57;13.30;;;7.37;;
5303;SDS011;2674;49.722;10.892;2023-01-23T00:04:23;13.63;;;7.33;;
5303;SDS011;2674;49.722;10.892;2023-01-23T00:06:49;15.20;;;8.13;;
5303;SDS011;2674;49.722;10.892;2023-01-23T00:09:15;13.03;;;7.20;;
5303;SDS011;2674;49.722;10.892;2023-01-23T00:11:41;14.73;;;7.77;;
5303;SDS011;2674;49.722;10.892;2023-01-23T00:14:08;13.40;;;7.80;;
5303;SDS011;2674;49.722;10.892;2023-01-23T00:16:34;12.83;;;6.93;;
5303;SDS011;2674;49.722;10.892;2023-01-23T00:19:00;15.20;;;8.50;;
5303;SDS011;2674;49.722;10.892;2023-01-23T00:21:26;16.17;;;8.90;;
5303;SDS011;2674;49.722;10.892;2023-01-23T00:23:54;14.10;;;7.60;;
5303;SDS011;2674;49.722;10.892;2023-01-23T00:26:23;13.80;;;7.10;;
5303;SDS011;2674;49.722;10.892;2023-01-23T00:28:50;14.70;;;8.30;;
5303;SDS011;2674;49.722;10.892;2023-01-23T00:31:18;14.13;;;8.10;;
5303;SDS011;2674;49.722;10.892;2023-01-23T00:33:45;12.93;;;6.60;;
5303;SDS011;2674;49.722;10.892;2023-01-23T00:36:12;12.20;;;7.33;;
5303;SDS011;2674;49.722;10.892;2023-01-23T00:38:39;14.47;;;7.90;;
5303;SDS011;2674;49.722;10.892;2023-01-23T00:41:06;16.87;;;7.87;;
5303;SDS011;2674;49.722;10.892;2023-01-23T00:43:32;11.90;;;6.90;;
5303;SDS011;2674;49.722;10.892;2023-01-23T00:45:58;14.30;;;8.17;;
5303;SDS011;2674;49.722;10.892;2023-01-23T00:48:24;9.07;;;6.13;;
5303;SDS011;2674;49.722;10.892;2023-01-23T00:50:50;13.20;;;7.50;;
5303;SDS011;2674;49.722;10.892;2023-01-23T00:53:16;13.50;;;7.90;;
5303;SDS011;2674;49.722;10.892;2023-01-23T00:55:43;13.93;;;6.70;;
5303;SDS011;2674;49.722;10.892;2023-01-23T00:58:09;13.70;;;7.20;;
5303;SDS011;2674;49.722;10.892;2023-01-23T01:00:35;13.53;;;7.40;;
5303;SDS011;2674;49.722;10.892;2023-01-23T01:03:02;13.40;;;7.13;;
5303;SDS011;2674;49.722;10.892;2023-01-23T01:05:29;12.80;;;7.30;;
5303;SDS011;2674;49.722;10.892;2023-01-23T01:07:55;12.23;;;6.60;;
5303;SDS011;2674;49.722;10.892;2023-01-23T01:10:21;12.37;;;6.67;;
5303;SDS011;2674;49.722;10.892;2023-01-23T01:12:48;13.53;;;7.23;;
5303;SDS011;2674;49.722;10.892;2023-01-23T01:15:14;8.80;;;6.10;;
5303;SDS011;2674;49.722;10.892;2023-01-23T01:17:40;8.93;;;6.57;;
5303;SDS011;2674;49.722;10.892;2023-01-23T01:20:06;15.10;;;7.60;;
5303;SDS011;2674;49.722;10.892;2023-01-23T01:22:32;12.40;;;6.97;;
5303;SDS011;2674;49.722;10.892;2023-01-23T01:24:58;11.60;;;7.00;;
5303;SDS011;2674;49.722;10.892;2023-01-23T01:27:24;10.83;;;6.77;;
5303;SDS011;2674;49.722;10.892;2023-01-23T01:29:50;11.70;;;6.63;;
5303;SDS011;2674;49.722;10.892;2023-01-23T01:32:16;9.90;;;6.63;;
5303;SDS011;2674;49.722;10.892;2023-01-23T01:34:41;9.50;;;5.67;;
5303;SDS011;2674;49.722;10.892;2023-01-23T01:37:07;10.83;;;7.00;;
5303;SDS011;2674;49.722;10.892;2023-01-23T01:39:33;10.50;;;6.50;;
5303;SDS011;2674;49.722;10.892;2023-01-23T01:41:59;12.50;;;6.43;;
5303;SDS011;2674;49.722;10.892;2023-01-23T01:44:25;12.73;;;7.53;;
5303;SDS011;2674;49.722;10.892;2023-01-23T01:46:52;9.70;;;6.17;;
5303;SDS011;2674;49.722;10.892;2023-01-23T01:49:19;9.70;;;6.47;;
5303;SDS011;2674;49.722;10.892;2023-01-23T01:54:40;7.77;;;5.97;;
5303;SDS011;2674;49.722;10.892;2023-01-23T01:57:10;9.90;;;6.93;;
5303;SDS011;2674;49.722;10.892;2023-01-23T01:59:45;10.20;;;6.37;;
5303;SDS011;2674;49.722;10.892;2023-01-23T02:02:31;12.30;;;6.50;;
5303;SDS011;2674;49.722;10.892;2023-01-23T02:05:09;12.60;;;6.90;;
5303;SDS011;2674;49.722;10.892;2023-01-23T02:07:45;10.77;;;5.70;;
5303;SDS011;2674;49.722;10.892;2023-01-23T02:10:11;10.77;;;6.60;;
5303;SDS011;2674;49.722;10.892;2023-01-23T02:12:38;12.00;;;7.47;;
5303;SDS011;2674;49.722;10.892;2023-01-23T02:15:05;12.43;;;7.53;;
5303;SDS011;2674;49.722;10.892;2023-01-23T02:17:32;9.87;;;6.30;;
5303;SDS011;2674;49.722;10.892;2023-01-23T02:20:19;9.93;;;6.10;;
5303;SDS011;2674;49.722;10.892;2023-01-23T02:25:33;10.63;;;6.50;;
5303;SDS011;2674;49.722;10.892;2023-01-23T02:28:12;12.33;;;6.97;;
5303;SDS011;2674;49.722;10.892;2023-01-23T02:30:40;9.20;;;6.30;;
5303;SDS011;2674;49.722;10.892;2023-01-23T02:33:07;11.53;;;6.97;;
5303;SDS011;2674;49.722;10.892;2023-01-23T02:35:46;9.90;;;6.50;;
5303;SDS011;2674;49.722;10.892;2023-01-23T02:38:12;9.33;;;6.43;;
5303;SDS011;2674;49.722;10.892;2023-01-23T02:40:40;11.57;;;7.20;;
5303;SDS011;2674;49.722;10.892;2023-01-23T02:43:11;12.13;;;7.27;;
5303;SDS011;2674;49.722;10.892;2023-01-23T02:45:40;11.37;;;7.10;;
5303;SDS011;2674;49.722;10.892;2023-01-23T02:48:05;9.93;;;6.43;;
5303;SDS011;2674;49.722;10.892;2023-01-23T02:50:33;11.77;;;6.80;;
5303;SDS011;2674;49.722;10.892;2023-01-23T02:52:59;14.10;;;7.23;;
5303;SDS011;2674;49.722;10.892;2023-01-23T02:55:25;11.27;;;7.07;;
5303;SDS011;2674;49.722;10.892;2023-01-23T02:57:53;12.77;;;7.00;;
5303;SDS011;2674;49.722;10.892;2023-01-23T03:00:41;12.00;;;7.30;;
5303;SDS011;2674;49.722;10.892;2023-01-23T03:03:07;11.40;;;7.50;;
5303;SDS011;2674;49.722;10.892;2023-01-23T03:05:33;11.93;;;7.63;;
5303;SDS011;2674;49.722;10.892;2023-01-23T03:08:00;9.80;;;6.17;;
5303;SDS011;2674;49.722;10.892;2023-01-23T03:10:26;8.80;;;5.97;;
5303;SDS011;2674;49.722;10.892;2023-01-23T03:12:53;10.77;;;6.60;;
5303;SDS011;2674;49.722;10.892;2023-01-23T03:15:21;12.83;;;6.90;;
5303;SDS011;2674;49.722;10.892;2023-01-23T03:17:47;10.23;;;5.97;;
5303;SDS011;2674;49.722;10.892;2023-01-23T03:20:12;15.23;;;7.60;;
5303;SDS011;2674;49.722;10.892;2023-01-23T03:22:38;11.43;;;6.93;;
5303;SDS011;2674;49.722;10.892;2023-01-23T03:25:05;14.77;;;6.20;;
5303;SDS011;2674;49.722;10.892;2023-01-23T03:27:31;11.83;;;7.00;;
5303;SDS011;2674;49.722;10.892;2023-01-23T03:29:57;15.30;;;7.60;;
5303;SDS011;2674;49.722;10.892;2023-01-23T03:32:40;11.00;;;7.07;;
5303;SDS011;2674;49.722;10.892;2023-01-23T03:35:08;12.60;;;7.60;;
5303;SDS011;2674;49.722;10.892;2023-01-23T03:37:38;9.67;;;6.30;;
5303;SDS011;2674;49.722;10.892;2023-01-23T03:40:04;12.40;;;7.40;;
5303;SDS011;2674;49.722;10.892;2023-01-23T03:42:49;11.73;;;7.20;;
5303;SDS011;2674;49.722;10.892;2023-01-23T03:45:15;12.60;;;7.67;;
5303;SDS011;2674;49.722;10.892;2023-01-23T03:47:40;13.30;;;8.10;;
5303;SDS011;2674;49.722;10.892;2023-01-23T03:50:06;15.37;;;8.03;;
5303;SDS011;2674;49.722;10.892;2023-01-23T03:52:33;10.77;;;7.50;;
5303;SDS011;2674;49.722;10.892;2023-01-23T03:54:59;14.60;;;8.00;;
5303;SDS011;2674;49.722;10.892;2023-01-23T03:57:24;11.53;;;7.30;;
5303;SDS011;2674;49.722;10.892;2023-01-23T03:59:50;14.10;;;8.43;;
5303;SDS011;2674;49.722;10.892;2023-01-23T04:02:16;11.30;;;7.70;;
5303;SDS011;2674;49.722;10.892;2023-01-23T04:04:42;12.57;;;7.37;;
5303;SDS011;2674;49.722;10.892;2023-01-23T04:07:07;15.20;;;9.07;;
5303;SDS011;2674;49.722;10.892;2023-01-23T04:09:33;12.30;;;7.60;;
5303;SDS011;2674;49.722;10.892;2023-01-23T04:11:59;14.30;;;7.93;;
5303;SDS011;2674;49.722;10.892;2023-01-23T04:14:26;12.83;;;7.17;;
5303;SDS011;2674;49.722;10.892;2023-01-23T04:16:54;14.13;;;8.10;;
5303;SDS011;2674;49.722;10.892;2023-01-23T04:19:20;14.23;;;7.93;;
5303;SDS011;2674;49.722;10.892;2023-01-23T04:21:46;14.20;;;7.43;;
5303;SDS011;2674;49.722;10.892;2023-01-23T04:24:13;16.13;;;8.43;;
5303;SDS011;2674;49.722;10.892;2023-01-23T04:26:42;16.20;;;9.03;;
5303;SDS011;2674;49.722;10.892;2023-01-23T04:29:08;13.57;;;7.63;;
5303;SDS011;2674;49.722;10.892;2023-01-23T04:31:34;15.90;;;8.77;;
5303;SDS011;2674;49.722;10.892;2023-01-23T04:34:00;10.83;;;7.43;;
5303;SDS011;2674;49.722;10.892;2023-01-23T04:36:27;14.10;;;8.17;;
5303;SDS011;2674;49.722;10.892;2023-01-23T04:38:53;22.00;;;9.50;;
5303;SDS011;2674;49.722;10.892;2023-01-23T04:41:23;14.33;;;8.10;;
5303;SDS011;2674;49.722;10.892;2023-01-23T04:43:50;15.93;;;9.17;;
5303;SDS011;2674;49.722;10.892;2023-01-23T04:46:16;18.23;;;9.27;;
5303;SDS011;2674;49.722;10.892;2023-01-23T04:48:42;16.93;;;8.80;;
5303;SDS011;2674;49.722;10.892;2023-01-23T04:51:08;14.23;;;8.40;;
5303;SDS011;2674;49.722;10.892;2023-01-23T04:53:34;15.03;;;8.40;;
5303;SDS011;2674;49.722;10.892;2023-01-23T04:56:00;13.30;;;7.80;;
5303;SDS011;2674;49.722;10.892;2023-01-23T04:58:27;15.57;;;7.90;;
5303;SDS011;2674;49.722;10.892;2023-01-23T05:00:54;15.90;;;7.83;;
5303;SDS011;2674;49.722;10.892;2023-01-23T05:03:27;15.67;;;9.00;;
5303;SDS011;2674;49.722;10.892;2023-01-23T05:05:53;19.97;;;9.50;;
5303;SDS011;2674;49.722;10.892;2023-01-23T05:08:19;17.17;;;9.30;;
5303;SDS011;2674;49.722;10.892;2023-01-23T05:10:44;17.73;;;8.30;;
5303;SDS011;2674;49.722;10.892;2023-01-23T05:13:10;12.93;;;7.33;;
5303;SDS011;2674;49.722;10.892;2023-01-23T05:15:36;17.10;;;8.50;;
5303;SDS011;2674;49.722;10.892;2023-01-23T05:18:02;15.23;;;9.27;;
5303;SDS011;2674;49.722;10.892;2023-01-23T05:20:28;16.90;;;9.53;;
5303;SDS011;2674;49.722;10.892;2023-01-23T05:22:53;13.53;;;8.00;;
5303;SDS011;2674;49.722;10.892;2023-01-23T05:25:20;17.87;;;9.10;;
5303;SDS011;2674;49.722;10.892;2023-01-23T05:27:48;16.70;;;8.77;;
5303;SDS011;2674;49.722;10.892;2023-01-23T05:30:14;14.63;;;8.00;;
5303;SDS011;2674;49.722;10.892;2023-01-23T05:32:40;15.27;;;8.97;;
5303;SDS011;2674;49.722;10.892;2023-01-23T05:35:06;14.23;;;8.60;;
5303;SDS011;2674;49.722;10.892;2023-01-23T05:37:32;13.53;;;7.40;;
5303;SDS011;2674;49.722;10.892;2023-01-23T05:39:58;12.23;;;7.90;;
5303;SDS011;2674;49.722;10.892;2023-01-23T05:42:24;17.60;;;9.90;;
5303;SDS011;2674;49.722;10.892;2023-01-23T05:44:50;14.07;;;8.03;;
5303;SDS011;2674;49.722;10.892;2023-01-23T05:47:16;14.80;;;8.10;;
5303;SDS011;2674;49.722;10.892;2023-01-23T05:49:41;12.53;;;7.17;;
5303;SDS011;2674;49.722;10.892;2023-01-23T05:52:07;14.57;;;8.00;;
5303;SDS011;2674;49.722;10.892;2023-01-23T05:54:33;14.07;;;8.40;;
5303;SDS011;2674;49.722;10.892;2023-01-23T05:56:59;14.60;;;8.20;;
5303;SDS011;2674;49.722;10.892;2023-01-23T05:59:25;15.60;;;7.80;;
5303;SDS011;2674;49.722;10.892;2023-01-23T06:01:50;14.27;;;7.80;;
5303;SDS011;2674;49.722;10.892;2023-01-23T06:04:16;14.20;;;7.90;;
5303;SDS011;2674;49.722;10.892;2023-01-23T06:06:43;16.97;;;8.17;;
5303;SDS011;2674;49.722;10.892;2023-01-23T06:09:10;17.50;;;8.47;;
5303;SDS011;2674;49.722;10.892;2023-01-23T06:11:36;20.00;;;8.67;;
5303;SDS011;2674;49.722;10.892;2023-01-23T06:14:02;15.80;;;8.70;;
5303;SDS011;2674;49.722;10.892;2023-01-23T06:16:28;19.20;;;8.90;;
5303;SDS011;2674;49.722;10.892;2023-01-23T06:18:53;13.57;;;7.97;;
5303;SDS011;2674;49.722;10.892;2023-01-23T06:21:19;13.80;;;8.30;;
5303;SDS011;2674;49.722;10.892;2023-01-23T06:23:45;11.93;;;7.17;;
5303;SDS011;2674;49.722;10.892;2023-01-23T06:26:11;11.50;;;6.83;;
5303;SDS011;2674;49.722;10.892;2023-01-23T06:28:38;12.90;;;7.17;;
5303;SDS011;2674;49.722;10.892;2023-01-23T06:31:04;17.13;;;9.70;;
5303;SDS011;2674;49.722;10.892;2023-01-23T06:33:31;19.00;;;8.70;;
5303;SDS011;2674;49.722;10.892;2023-01-23T06:35:58;14.87;;;8.17;;
5303;SDS011;2674;49.722;10.892;2023-01-23T06:38:24;13.73;;;7.53;;
5303;SDS011;2674;49.722;10.892;2023-01-23T06:40:50;12.10;;;7.30;;
5303;SDS011;2674;49.722;10.892;2023-01-23T06:43:17;13.83;;;8.57;;
5303;SDS011;2674;49.722;10.892;2023-01-23T06:45:43;13.73;;;7.73;;
5303;SDS011;2674;49.722;10.892;2023-01-23T06:48:10;15.73;;;8.20;;
5303;SDS011;2674;49.722;10.892;2023-01-23T06:50:37;15.97;;;8.27;;
5303;SDS011;2674;49.722;10.892;2023-01-23T06:53:04;13.73;;;7.77;;
5303;SDS011;2674;49.722;10.892;2023-01-23T06:55:30;12.60;;;7.97;;
5303;SDS011;2674;49.722;10.892;2023-01-23T06:57:56;12.70;;;8.70;;
5303;SDS011;2674;49.722;10.892;2023-01-23T07:00:22;15.57;;;9.30;;
5303;SDS011;2674;49.722;10.892;2023-01-23T07:02:48;14.77;;;9.27;;
5303;SDS011;2674;49.722;10.892;2023-01-23T07:05:15;17.47;;;9.77;;
5303;SDS011;2674;49.722;10.892;2023-01-23T07:07:41;13.10;;;8.33;;
5303;SDS011;2674;49.722;10.892;2023-01-23T07:10:07;14.60;;;8.27;;
5303;SDS011;2674;49.722;10.892;2023-01-23T07:12:34;14.83;;;8.10;;
5303;SDS011;2674;49.722;10.892;2023-01-23T07:15:00;12.33;;;7.57;;
5303;SDS011;2674;49.722;10.892;2023-01-23T07:17:26;16.83;;;8.87;;
5303;SDS011;2674;49.722;10.892;2023-01-23T07:19:52;17.73;;;9.70;;
5303;SDS011;2674;49.722;10.892;2023-01-23T07:22:18;13.87;;;7.23;;
5303;SDS011;2674;49.722;10.892;2023-01-23T07:24:46;15.37;;;7.80;;
5303;SDS011;2674;49.722;10.892;2023-01-23T07:27:12;14.87;;;8.53;;
5303;SDS011;2674;49.722;10.892;2023-01-23T07:29:39;14.00;;;8.00;;
5303;SDS011;2674;49.722;10.892;2023-01-23T07:32:05;15.00;;;8.13;;
5303;SDS011;2674;49.722;10.892;2023-01-23T07:34:31;16.00;;;8.27;;
5303;SDS011;2674;49.722;10.892;2023-01-23T07:36:57;17.70;;;8.47;;
5303;SDS011;2674;49.722;10.892;2023-01-23T07:39:22;15.37;;;8.00;;
5303;SDS011;2674;49.722;10.892;2023-01-23T07:41:48;20.60;;;9.00;;
5303;SDS011;2674;49.722;10.892;2023-01-23T07:44:18;12.70;;;8.00;;
5303;SDS011;2674;49.722;10.892;2023-01-23T07:46:46;12.97;;;8.10;;
5303;SDS011;2674;49.722;10.892;2023-01-23T07:49:13;12.17;;;8.27;;
5303;SDS011;2674;49.722;10.892;2023-01-23T07:51:39;18.00;;;9.27;;
5303;SDS011;2674;49.722;10.892;2023-01-23T07:54:06;15.77;;;9.10;;
5303;SDS011;2674;49.722;10.892;2023-01-23T07:56:32;15.70;;;9.10;;
5303;SDS011;2674;49.722;10.892;2023-01-23T07:58:58;21.97;;;9.73;;
5303;SDS011;2674;49.722;10.892;2023-01-23T08:01:26;13.70;;;7.93;;
5303;SDS011;2674;49.722;10.892;2023-01-23T08:03:52;15.13;;;9.10;;
5303;SDS011;2674;49.722;10.892;2023-01-23T08:06:18;18.90;;;9.13;;
5303;SDS011;2674;49.722;10.892;2023-01-23T08:08:46;16.20;;;10.10;;
5303;SDS011;2674;49.722;10.892;2023-01-23T08:11:12;16.97;;;9.23;;
5303;SDS011;2674;49.722;10.892;2023-01-23T08:13:38;15.93;;;9.40;;
5303;SDS011;2674;49.722;10.892;2023-01-23T08:16:04;16.60;;;8.77;;
5303;SDS011;2674;49.722;10.892;2023-01-23T08:18:31;15.90;;;9.53;;
5303;SDS011;2674;49.722;10.892;2023-01-23T08:20:58;15.20;;;8.23;;
5303;SDS011;2674;49.722;10.892;2023-01-23T08:23:26;14.90;;;8.43;;
5303;SDS011;2674;49.722;10.892;2023-01-23T08:25:53;12.87;;;8.27;;
5303;SDS011;2674;49.722;10.892;2023-01-23T08:28:20;18.63;;;9.73;;
5303;SDS011;2674;49.722;10.892;2023-01-23T08:30:47;14.90;;;9.27;;
5303;SDS011;2674;49.722;10.892;2023-01-23T08:33:13;20.90;;;9.80;;
5303;SDS011;2674;49.722;10.892;2023-01-23T08:35:47;17.10;;;9.30;;
5303;SDS011;2674;49.722;10.892;2023-01-23T08:38:13;16.60;;;9.77;;
5303;SDS011;2674;49.722;10.892;2023-01-23T08:40:39;19.80;;;9.50;;
5303;SDS011;2674;49.722;10.892;2023-01-23T08:43:05;15.17;;;8.70;;
5303;SDS011;2674;49.722;10.892;2023-01-23T08:45:31;18.13;;;9.93;;
5303;SDS011;2674;49.722;10.892;2023-01-23T08:47:57;14.87;;;8.50;;
5303;SDS011;2674;49.722;10.892;2023-01-23T08:50:22;14.70;;;8.60;;
5303;SDS011;2674;49.722;10.892;2023-01-23T08:52:48;14.60;;;8.00;;
5303;SDS011;2674;49.722;10.892;2023-01-23T08:55:14;15.63;;;8.93;;
5303;SDS011;2674;49.722;10.892;2023-01-23T08:57:40;15.30;;;9.80;;
5303;SDS011;2674;49.722;10.892;2023-01-23T09:00:06;14.97;;;8.57;;
5303;SDS011;2674;49.722;10.892;2023-01-23T09:02:32;12.70;;;8.00;;
5303;SDS011;2674;49.722;10.892;2023-01-23T09:04:58;13.83;;;8.80;;
5303;SDS011;2674;49.722;10.892;2023-01-23T09:07:24;13.20;;;8.73;;
5303;SDS011;2674;49.722;10.892;2023-01-23T09:09:50;16.87;;;9.50;;
5303;SDS011;2674;49.722;10.892;2023-01-23T09:12:16;16.23;;;8.43;;
5303;SDS011;2674;49.722;10.892;2023-01-23T09:14:41;14.60;;;9.33;;
5303;SDS011;2674;49.722;10.892;2023-01-23T09:17:07;15.97;;;8.60;;
5303;SDS011;2674;49.722;10.892;2023-01-23T09:19:33;17.40;;;10.30;;
5303;SDS011;2674;49.722;10.892;2023-01-23T09:21:59;19.77;;;11.00;;
5303;SDS011;2674;49.722;10.892;2023-01-23T09:24:25;21.40;;;10.17;;
5303;SDS011;2674;49.722;10.892;2023-01-23T09:26:51;16.73;;;8.93;;
5303;SDS011;2674;49.722;10.892;2023-01-23T09:29:17;17.30;;;9.70;;
5303;SDS011;2674;49.722;10.892;2023-01-23T09:31:42;16.70;;;9.77;;
5303;SDS011;2674;49.722;10.892;2023-01-23T09:34:08;15.40;;;9.50;;
5303;SDS011;2674;49.722;10.892;2023-01-23T09:36:37;14.80;;;8.87;;
5303;SDS011;2674;49.722;10.892;2023-01-23T09:39:03;15.70;;;9.50;;
5303;SDS011;2674;49.722;10.892;2023-01-23T09:41:29;18.70;;;9.20;;
5303;SDS011;2674;49.722;10.892;2023-01-23T09:46:40;13.80;;;9.27;;
5303;SDS011;2674;49.722;10.892;2023-01-23T09:49:25;13.87;;;8.17;;
5303;SDS011;2674;49.722;10.892;2023-01-23T09:52:20;16.17;;;8.47;;
5303;SDS011;2674;49.722;10.892;2023-01-23T09:54:57;16.03;;;9.37;;
5303;SDS011;2674;49.722;10.892;2023-01-23T09:57:45;11.33;;;8.03;;
5303;SDS011;2674;49.722;10.892;2023-01-23T10:00:16;16.47;;;8.80;;
5303;SDS011;2674;49.722;10.892;2023-01-23T10:02:54;19.50;;;9.10;;
5303;SDS011;2674;49.722;10.892;2023-01-23T10:05:31;14.27;;;8.13;;
5303;SDS011;2674;49.722;10.892;2023-01-23T10:18:59;18.40;;;9.73;;
5303;SDS011;2674;49.722;10.892;2023-01-23T10:21:59;17.03;;;8.00;;
5303;SDS011;2674;49.722;10.892;2023-01-23T10:24:48;18.20;;;9.70;;
5303;SDS011;2674;49.722;10.892;2023-01-23T10:27:24;18.40;;;9.20;;
5303;SDS011;2674;49.722;10.892;2023-01-23T10:29:59;15.60;;;9.13;;
5303;SDS011;2674;49.722;10.892;2023-01-23T10:32:31;14.07;;;8.40;;
5303;SDS011;2674;49.722;10.892;2023-01-23T10:35:06;17.07;;;9.80;;
5303;SDS011;2674;49.722;10.892;2023-01-23T10:40:57;16.10;;;8.43;;
5303;SDS011;2674;49.722;10.892;2023-01-23T10:43:45;15.33;;;9.27;;
5303;SDS011;2674;49.722;10.892;2023-01-23T10:48:45;17.10;;;10.93;;
5303;SDS011;2674;49.722;10.892;2023-01-23T10:51:28;21.50;;;10.37;;
5303;SDS011;2674;49.722;10.892;2023-01-23T10:56:46;18.90;;;9.67;;
5303;SDS011;2674;49.722;10.892;2023-01-23T10:59:18;12.93;;;7.83;;
5303;SDS011;2674;49.722;10.892;2023-01-23T11:01:56;11.73;;;7.30;;
5303;SDS011;2674;49.722;10.892;2023-01-23T11:04:24;13.90;;;7.60;;
5303;SDS011;2674;49.722;10.892;2023-01-23T11:09:38;15.07;;;9.47;;
5303;SDS011;2674;49.722;10.892;2023-01-23T11:12:19;20.00;;;12.40;;
5303;SDS011;2674;49.722;10.892;2023-01-23T11:14:45;17.73;;;10.10;;
5303;SDS011;2674;49.722;10.892;2023-01-23T11:19:39;18.10;;;8.83;;
5303;SDS011;2674;49.722;10.892;2023-01-23T11:22:21;14.23;;;8.10;;
5303;SDS011;2674;49.722;10.892;2023-01-23T11:24:51;15.33;;;9.13;;
5303;SDS011;2674;49.722;10.892;2023-01-23T11:27:18;12.70;;;7.63;;
5303;SDS011;2674;49.722;10.892;2023-01-23T11:35:33;18.03;;;8.30;;
5303;SDS011;2674;49.722;10.892;2023-01-23T11:38:21;11.53;;;8.27;;
5303;SDS011;2674;49.722;10.892;2023-01-23T11:40:51;12.90;;;8.00;;
5303;SDS011;2674;49.722;10.892;2023-01-23T11:43:17;14.47;;;8.80;;
5303;SDS011;2674;49.722;10.892;2023-01-23T11:51:35;12.80;;;7.40;;
5303;SDS011;2674;49.722;10.892;2023-01-23T12:00:15;13.10;;;7.73;;
5303;SDS011;2674;49.722;10.892;2023-01-23T12:08:10;13.03;;;8.03;;
5303;SDS011;2674;49.722;10.892;2023-01-23T12:11:23;10.87;;;7.47;;
5303;SDS011;2674;49.722;10.892;2023-01-23T12:40:45;14.07;;;8.77;;
5303;SDS011;2674;49.722;10.892;2023-01-23T12:43:33;14.30;;;8.40;;
5303;SDS011;2674;49.722;10.892;2023-01-23T12:46:07;14.40;;;8.50;;
5303;SDS011;2674;49.722;10.892;2023-01-23T12:48:44;17.17;;;7.87;;
5303;SDS011;2674;49.722;10.892;2023-01-23T12:51:25;13.87;;;8.40;;
5303;SDS011;2674;49.722;10.892;2023-01-23T12:54:00;14.30;;;9.03;;
5303;SDS011;2674;49.722;10.892;2023-01-23T12:56:32;13.07;;;7.10;;
5303;SDS011;2674;49.722;10.892;2023-01-23T12:59:09;10.40;;;7.00;;
5303;SDS011;2674;49.722;10.892;2023-01-23T13:01:51;12.23;;;7.80;;
5303;SDS011;2674;49.722;10.892;2023-01-23T13:07:52;8.70;;;5.90;;
5303;SDS011;2674;49.722;10.892;2023-01-23T13:13:17;12.90;;;6.53;;
5303;SDS011;2674;49.722;10.892;2023-01-23T13:15:43;8.73;;;6.20;;
5303;SDS011;2674;49.722;10.892;2023-01-23T13:18:26;11.73;;;7.53;;
5303;SDS011;2674;49.722;10.892;2023-01-23T13:20:57;10.70;;;6.70;;
5303;SDS011;2674;49.722;10.892;2023-01-23T13:23:42;11.40;;;6.83;;
5303;SDS011;2674;49.722;10.892;2023-01-23T13:31:32;11.03;;;6.40;;
5303;SDS011;2674;49.722;10.892;2023-01-23T13:36:41;9.80;;;6.30;;
5303;SDS011;2674;49.722;10.892;2023-01-23T13:41:40;9.70;;;6.00;;
5303;SDS011;2674;49.722;10.892;2023-01-23T13:44:23;6.67;;;5.60;;
5303;SDS011;2674;49.722;10.892;2023-01-23T13:52:40;9.87;;;5.83;;
5303;SDS011;2674;49.722;10.892;2023-01-23T13:55:31;8.20;;;5.03;;
5303;SDS011;2674;49.722;10.892;2023-01-23T13:58:17;6.50;;;4.83;;
5303;SDS011;2674;49.722;10.892;2023-01-23T14:00:54;9.13;;;5.50;;
5303;SDS011;2674;49.722;10.892;2023-01-23T14:03:46;8.20;;;5.63;;
5303;SDS011;2674;49.722;10.892;2023-01-23T14:06:38;7.23;;;4.53;;
5303;SDS011;2674;49.722;10.892;2023-01-23T14:09:21;10.73;;;5.53;;
5303;SDS011;2674;49.722;10.892;2023-01-23T14:14:23;8.20;;;5.03;;
5303;SDS011;2674;49.722;10.892;2023-01-23T14:17:07;10.07;;;7.07;;
5303;SDS011;2674;49.722;10.892;2023-01-23T14:19:37;9.97;;;5.40;;
5303;SDS011;2674;49.722;10.892;2023-01-23T14:22:18;8.30;;;5.53;;
5303;SDS011;2674;49.722;10.892;2023-01-23T14:24:51;11.77;;;6.00;;
5303;SDS011;2674;49.722;10.892;2023-01-23T14:32:27;8.13;;;6.23;;
5303;SDS011;2674;49.722;10.892;2023-01-23T14:34:55;9.23;;;5.83;;
5303;SDS011;2674;49.722;10.892;2023-01-23T14:37:21;7.23;;;4.97;;
5303;SDS011;2674;49.722;10.892;2023-01-23T14:39:48;7.53;;;5.47;;
5303;SDS011;2674;49.722;10.892;2023-01-23T14:42:21;7.40;;;5.27;;
5303;SDS011;2674;49.722;10.892;2023-01-23T14:44:52;7.60;;;5.30;;
5303;SDS011;2674;49.722;10.892;2023-01-23T14:47:53;11.30;;;6.07;;
5303;SDS011;2674;49.722;10.892;2023-01-23T14:50:16;8.63;;;5.37;;
5303;SDS011;2674;49.722;10.892;2023-01-23T14:55:50;9.20;;;5.50;;
5303;SDS011;2674;49.722;10.892;2023-01-23T14:58:19;7.00;;;4.70;;
5303;SDS011;2674;49.722;10.892;2023-01-23T15:00:47;6.63;;;5.40;;
5303;SDS011;2674;49.722;10.892;2023-01-23T15:03:33;8.57;;;5.73;;
5303;SDS011;2674;49.722;10.892;2023-01-23T15:06:00;9.23;;;5.40;;
5303;SDS011;2674;49.722;10.892;2023-01-23T15:08:31;10.00;;;6.50;;
5303;SDS011;2674;49.722;10.892;2023-01-23T15:10:58;7.90;;;6.03;;
5303;SDS011;2674;49.722;10.892;2023-01-23T15:16:04;7.23;;;5.10;;
5303;SDS011;2674;49.722;10.892;2023-01-23T15:18:38;9.20;;;6.50;;
5303;SDS011;2674;49.722;10.892;2023-01-23T15:21:21;7.63;;;5.90;;
5303;SDS011;2674;49.722;10.892;2023-01-23T15:24:04;10.97;;;6.50;;
5303;SDS011;2674;49.722;10.892;2023-01-23T15:26:58;7.23;;;4.87;;
5303;SDS011;2674;49.722;10.892;2023-01-23T15:29:27;5.10;;;4.30;;
5303;SDS011;2674;49.722;10.892;2023-01-23T15:31:54;8.33;;;5.77;;
5303;SDS011;2674;49.722;10.892;2023-01-23T15:34:25;7.53;;;5.77;;
5303;SDS011;2674;49.722;10.892;2023-01-23T15:36:55;8.83;;;6.37;;
5303;SDS011;2674;49.722;10.892;2023-01-23T15:41:58;8.20;;;5.97;;
5303;SDS011;2674;49.722;10.892;2023-01-23T15:44:27;10.57;;;6.40;;
5303;SDS011;2674;49.722;10.892;2023-01-23T15:46:54;7.82;;;6.10;;
5303;SDS011;2674;49.722;10.892;2023-01-23T15:49:24;9.50;;;6.30;;
5303;SDS011;2674;49.722;10.892;2023-01-23T15:51:53;8.77;;;5.93;;
5303;SDS011;2674;49.722;10.892;2023-01-23T15:54:22;8.93;;;6.47;;
5303;SDS011;2674;49.722;10.892;2023-01-23T15:56:53;11.47;;;7.23;;
5303;SDS011;2674;49.722;10.892;2023-01-23T15:59:18;9.30;;;5.90;;
5303;SDS011;2674;49.722;10.892;2023-01-23T16:01:44;13.17;;;6.63;;
5303;SDS011;2674;49.722;10.892;2023-01-23T16:04:10;8.63;;;6.10;;
5303;SDS011;2674;49.722;10.892;2023-01-23T16:06:37;10.93;;;6.80;;
5303;SDS011;2674;49.722;10.892;2023-01-23T16:09:03;8.30;;;6.10;;
5303;SDS011;2674;49.722;10.892;2023-01-23T16:11:30;12.13;;;7.00;;
5303;SDS011;2674;49.722;10.892;2023-01-23T16:13:59;9.40;;;6.50;;
5303;SDS011;2674;49.722;10.892;2023-01-23T16:16:26;9.67;;;6.60;;
5303;SDS011;2674;49.722;10.892;2023-01-23T16:18:52;9.37;;;6.10;;
5303;SDS011;2674;49.722;10.892;2023-01-23T16:21:27;10.37;;;6.10;;
5303;SDS011;2674;49.722;10.892;2023-01-23T16:23:54;12.50;;;7.30;;
5303;SDS011;2674;49.722;10.892;2023-01-23T16:26:21;12.90;;;7.27;;
5303;SDS011;2674;49.722;10.892;2023-01-23T16:28:49;15.43;;;7.90;;
5303;SDS011;2674;49.722;10.892;2023-01-23T16:31:15;10.80;;;8.03;;
5303;SDS011;2674;49.722;10.892;2023-01-23T16:33:42;11.40;;;7.40;;
5303;SDS011;2674;49.722;10.892;2023-01-23T16:36:15;12.00;;;7.37;;
5303;SDS011;2674;49.722;10.892;2023-01-23T16:38:52;10.20;;;7.00;;
5303;SDS011;2674;49.722;10.892;2023-01-23T16:41:20;10.93;;;7.00;;
5303;SDS011;2674;49.722;10.892;2023-01-23T16:43:47;11.80;;;7.43;;
5303;SDS011;2674;49.722;10.892;2023-01-23T16:46:14;7.10;;;4.73;;
5303;SDS011;2674;49.722;10.892;2023-01-23T16:48:41;13.27;;;8.27;;
5303;SDS011;2674;49.722;10.892;2023-01-23T16:53:50;13.63;;;7.67;;
5303;SDS011;2674;49.722;10.892;2023-01-23T16:56:34;9.93;;;6.90;;
5303;SDS011;2674;49.722;10.892;2023-01-23T16:59:06;13.33;;;7.77;;
5303;SDS011;2674;49.722;10.892;2023-01-23T17:01:45;13.57;;;7.90;;
5303;SDS011;2674;49.722;10.892;2023-01-23T17:04:16;14.90;;;7.00;;
5303;SDS011;2674;49.722;10.892;2023-01-23T17:06:47;19.03;;;7.60;;
5303;SDS011;2674;49.722;10.892;2023-01-23T17:09:13;12.17;;;8.03;;